sensor_id;sensor_type;location;lat;lon;timestamp;temperature;humidity
28244;DHT22;15510;52.512;13.300;2022-12-20T00:01:09;4.30;99.90
28244;DHT22;15510;52.512;13.300;2022-12-20T00:03:35;4.20;99.90
28244;DHT22;15510;52.512;13.300;2022-12-20T00:06:01;4.20;99.90
28244;DHT22;15510;52.512;13.300;2022-12-20T00:08:27;4.30;99.90
28244;DHT22;15510;52.512;13.300;2022-12-20T00:10:53;4.30;99.90
28244;DHT22;15510;52.512;13.300;2022-12-20T00:13:19;4.30;99.90
28244;DHT22;15510;52.512;13.300;2022-12-20T00:15:45;4.30;99.90
28244;DHT22;15510;52.512;13.300;2022-12-20T00:18:10;4.30;99.90
28244;DHT22;15510;52.512;13.300;2022-12-20T00:20:36;4.30;99.90
28244;DHT22;15510;52.512;13.300;2022-12-20T00:23:02;4.30;99.90
28244;DHT22;15510;52.512;13.300;2022-12-20T00:25:28;4.30;99.90
28244;DHT22;15510;52.512;13.300;2022-12-20T00:27:54;4.30;99.90
28244;DHT22;15510;52.512;13.300;2022-12-20T00:30:19;4.30;99.90
28244;DHT22;15510;52.512;13.300;2022-12-20T00:32:45;4.30;99.90
28244;DHT22;15510;52.512;13.300;2022-12-20T00:35:12;4.30;99.90
28244;DHT22;15510;52.512;13.300;2022-12-20T00:37:38;4.30;99.90
28244;DHT22;15510;52.512;13.300;2022-12-20T00:40:10;4.30;99.90
28244;DHT22;15510;52.512;13.300;2022-12-20T00:42:36;4.30;99.90
28244;DHT22;15510;52.512;13.300;2022-12-20T00:45:04;4.30;99.90
28244;DHT22;15510;52.512;13.300;2022-12-20T00:47:29;4.40;99.90
28244;DHT22;15510;52.512;13.300;2022-12-20T00:49:55;4.30;99.90
28244;DHT22;15510;52.512;13.300;2022-12-20T00:52:21;4.30;99.90
28244;DHT22;15510;52.512;13.300;2022-12-20T00:54:46;4.40;99.90
28244;DHT22;15510;52.512;13.300;2022-12-20T00:57:12;4.40;99.90
28244;DHT22;15510;52.512;13.300;2022-12-20T00:59:38;4.40;99.90
28244;DHT22;15510;52.512;13.300;2022-12-20T01:02:03;4.30;99.90
28244;DHT22;15510;52.512;13.300;2022-12-20T01:04:30;4.30;99.90
28244;DHT22;15510;52.512;13.300;2022-12-20T01:06:55;4.30;99.90
28244;DHT22;15510;52.512;13.300;2022-12-20T01:09:22;4.30;99.90
28244;DHT22;15510;52.512;13.300;2022-12-20T01:11:48;4.40;99.90
28244;DHT22;15510;52.512;13.300;2022-12-20T01:14:15;4.40;99.90
28244;DHT22;15510;52.512;13.300;2022-12-20T01:16:45;4.40;99.90
28244;DHT22;15510;52.512;13.300;2022-12-20T01:19:15;4.40;99.90
28244;DHT22;15510;52.512;13.300;2022-12-20T01:21:41;4.40;99.90
28244;DHT22;15510;52.512;13.300;2022-12-20T01:24:14;4.40;99.90
28244;DHT22;15510;52.512;13.300;2022-12-20T01:26:40;4.40;99.90
28244;DHT22;15510;52.512;13.300;2022-12-20T01:29:06;4.40;99.90
28244;DHT22;15510;52.512;13.300;2022-12-20T01:31:32;4.50;99.90
28244;DHT22;15510;52.512;13.300;2022-12-20T01:33:59;4.50;99.90
28244;DHT22;15510;52.512;13.300;2022-12-20T01:36:27;4.50;99.90
28244;DHT22;15510;52.512;13.300;2022-12-20T01:39:05;4.50;99.90
28244;DHT22;15510;52.512;13.300;2022-12-20T01:41:31;4.50;99.90
28244;DHT22;15510;52.512;13.300;2022-12-20T01:44:06;4.60;99.90
28244;DHT22;15510;52.512;13.300;2022-12-20T01:46:49;4.60;99.90
28244;DHT22;15510;52.512;13.300;2022-12-20T01:52:02;4.50;99.90
28244;DHT22;15510;52.512;13.300;2022-12-20T01:54:50;4.50;99.90
28244;DHT22;15510;52.512;13.300;2022-12-20T01:57:21;4.50;99.90
28244;DHT22;15510;52.512;13.300;2022-12-20T01:59:50;4.40;99.90
28244;DHT22;15510;52.512;13.300;2022-12-20T02:02:19;4.50;99.90
28244;DHT22;15510;52.512;13.300;2022-12-20T02:04:45;4.50;99.90
28244;DHT22;15510;52.512;13.300;2022-12-20T02:07:14;4.50;99.90
28244;DHT22;15510;52.512;13.300;2022-12-20T02:09:42;4.40;99.90
28244;DHT22;15510;52.512;13.300;2022-12-20T02:12:25;4.40;99.90
28244;DHT22;15510;52.512;13.300;2022-12-20T02:23:44;4.40;99.90
28244;DHT22;15510;52.512;13.300;2022-12-20T02:35:22;4.50;99.90
28244;DHT22;15510;52.512;13.300;2022-12-20T02:37:50;4.50;99.90
28244;DHT22;15510;52.512;13.300;2022-12-20T02:40:21;4.60;99.90
28244;DHT22;15510;52.512;13.300;2022-12-20T02:42:51;4.60;99.90
28244;DHT22;15510;52.512;13.300;2022-12-20T02:45:20;4.60;99.90
28244;DHT22;15510;52.512;13.300;2022-12-20T02:47:58;4.60;99.90
28244;DHT22;15510;52.512;13.300;2022-12-20T02:50:31;4.60;99.90
28244;DHT22;15510;52.512;13.300;2022-12-20T02:52:59;4.70;99.90
28244;DHT22;15510;52.512;13.300;2022-12-20T02:55:37;4.70;99.90
28244;DHT22;15510;52.512;13.300;2022-12-20T02:58:11;4.70;99.90
28244;DHT22;15510;52.512;13.300;2022-12-20T03:00:40;4.70;99.90
28244;DHT22;15510;52.512;13.300;2022-12-20T03:03:08;4.70;99.90
28244;DHT22;15510;52.512;13.300;2022-12-20T03:05:52;4.70;99.90
28244;DHT22;15510;52.512;13.300;2022-12-20T03:08:19;4.70;99.90
28244;DHT22;15510;52.512;13.300;2022-12-20T03:10:48;4.70;99.90
28244;DHT22;15510;52.512;13.300;2022-12-20T03:13:15;4.70;99.90
28244;DHT22;15510;52.512;13.300;2022-12-20T03:15:55;4.80;99.90
28244;DHT22;15510;52.512;13.300;2022-12-20T03:18:22;4.90;99.90
28244;DHT22;15510;52.512;13.300;2022-12-20T03:20:47;4.90;99.90
28244;DHT22;15510;52.512;13.300;2022-12-20T03:23:13;4.90;99.90
28244;DHT22;15510;52.512;13.300;2022-12-20T03:25:39;4.90;99.90
28244;DHT22;15510;52.512;13.300;2022-12-20T03:28:07;4.90;99.90
28244;DHT22;15510;52.512;13.300;2022-12-20T03:30:33;4.90;99.90
28244;DHT22;15510;52.512;13.300;2022-12-20T03:32:59;5.00;99.90
28244;DHT22;15510;52.512;13.300;2022-12-20T03:35:24;5.00;99.90
28244;DHT22;15510;52.512;13.300;2022-12-20T03:37:50;5.00;99.90
28244;DHT22;15510;52.512;13.300;2022-12-20T03:40:16;5.00;99.90
28244;DHT22;15510;52.512;13.300;2022-12-20T03:42:43;5.10;99.90
28244;DHT22;15510;52.512;13.300;2022-12-20T03:45:09;5.10;99.90
28244;DHT22;15510;52.512;13.300;2022-12-20T03:47:35;5.10;99.90
28244;DHT22;15510;52.512;13.300;2022-12-20T03:50:02;5.10;99.90
28244;DHT22;15510;52.512;13.300;2022-12-20T03:52:32;5.10;99.90
28244;DHT22;15510;52.512;13.300;2022-12-20T03:54:58;5.20;99.90
28244;DHT22;15510;52.512;13.300;2022-12-20T03:57:31;5.20;99.90
28244;DHT22;15510;52.512;13.300;2022-12-20T03:59:58;5.20;99.90
28244;DHT22;15510;52.512;13.300;2022-12-20T04:02:23;5.10;99.90
28244;DHT22;15510;52.512;13.300;2022-12-20T04:04:50;5.10;99.90
28244;DHT22;15510;52.512;13.300;2022-12-20T04:07:16;5.10;99.90
28244;DHT22;15510;52.512;13.300;2022-12-20T04:09:45;5.10;99.90
28244;DHT22;15510;52.512;13.300;2022-12-20T04:12:12;5.10;99.90
28244;DHT22;15510;52.512;13.300;2022-12-20T04:14:38;5.10;99.90
28244;DHT22;15510;52.512;13.300;2022-12-20T04:17:05;5.10;99.90
28244;DHT22;15510;52.512;13.300;2022-12-20T04:19:32;5.10;99.90
28244;DHT22;15510;52.512;13.300;2022-12-20T04:21:58;5.10;99.90
28244;DHT22;15510;52.512;13.300;2022-12-20T04:24:27;5.10;99.90
28244;DHT22;15510;52.512;13.300;2022-12-20T04:27:14;5.00;99.90
28244;DHT22;15510;52.512;13.300;2022-12-20T04:29:40;4.90;99.90
28244;DHT22;15510;52.512;13.300;2022-12-20T04:32:09;4.90;99.90
28244;DHT22;15510;52.512;13.300;2022-12-20T04:34:35;4.90;99.90
28244;DHT22;15510;52.512;13.300;2022-12-20T04:37:00;4.90;99.90
28244;DHT22;15510;52.512;13.300;2022-12-20T04:39:37;4.90;99.90
28244;DHT22;15510;52.512;13.300;2022-12-20T04:42:32;4.90;99.90
28244;DHT22;15510;52.512;13.300;2022-12-20T04:44:59;4.90;99.90
28244;DHT22;15510;52.512;13.300;2022-12-20T04:47:27;4.80;99.90
28244;DHT22;15510;52.512;13.300;2022-12-20T04:49:54;4.80;99.90
28244;DHT22;15510;52.512;13.300;2022-12-20T04:52:19;4.70;99.90
28244;DHT22;15510;52.512;13.300;2022-12-20T04:55:04;4.70;99.90
28244;DHT22;15510;52.512;13.300;2022-12-20T04:57:32;4.70;99.90
28244;DHT22;15510;52.512;13.300;2022-12-20T04:59:59;4.60;99.90
28244;DHT22;15510;52.512;13.300;2022-12-20T05:02:24;4.60;99.90
28244;DHT22;15510;52.512;13.300;2022-12-20T05:04:54;4.60;99.90
28244;DHT22;15510;52.512;13.300;2022-12-20T05:07:20;4.60;99.90
28244;DHT22;15510;52.512;13.300;2022-12-20T05:09:50;4.60;99.90
28244;DHT22;15510;52.512;13.300;2022-12-20T05:12:16;4.70;99.90
28244;DHT22;15510;52.512;13.300;2022-12-20T05:14:41;4.70;99.90
28244;DHT22;15510;52.512;13.300;2022-12-20T05:17:09;4.80;99.90
28244;DHT22;15510;52.512;13.300;2022-12-20T05:19:35;4.80;99.90
28244;DHT22;15510;52.512;13.300;2022-12-20T05:22:01;4.90;99.90
28244;DHT22;15510;52.512;13.300;2022-12-20T05:25:00;4.90;99.90
28244;DHT22;15510;52.512;13.300;2022-12-20T05:27:44;4.90;99.90
28244;DHT22;15510;52.512;13.300;2022-12-20T05:30:10;5.00;99.90
28244;DHT22;15510;52.512;13.300;2022-12-20T05:32:36;5.00;99.90
28244;DHT22;15510;52.512;13.300;2022-12-20T05:35:02;5.00;99.90
28244;DHT22;15510;52.512;13.300;2022-12-20T05:37:29;5.00;99.90
28244;DHT22;15510;52.512;13.300;2022-12-20T05:39:59;5.00;99.90
28244;DHT22;15510;52.512;13.300;2022-12-20T05:42:24;5.00;99.90
28244;DHT22;15510;52.512;13.300;2022-12-20T05:44:51;5.00;99.90
28244;DHT22;15510;52.512;13.300;2022-12-20T05:47:18;5.10;99.90
28244;DHT22;15510;52.512;13.300;2022-12-20T05:49:44;5.10;99.90
28244;DHT22;15510;52.512;13.300;2022-12-20T05:52:10;5.10;99.90
28244;DHT22;15510;52.512;13.300;2022-12-20T05:54:38;5.20;99.90
28244;DHT22;15510;52.512;13.300;2022-12-20T05:57:08;5.20;99.90
28244;DHT22;15510;52.512;13.300;2022-12-20T05:59:37;5.20;99.90
28244;DHT22;15510;52.512;13.300;2022-12-20T06:02:05;5.20;99.90
28244;DHT22;15510;52.512;13.300;2022-12-20T06:04:32;5.20;99.90
28244;DHT22;15510;52.512;13.300;2022-12-20T06:07:02;5.20;99.90
28244;DHT22;15510;52.512;13.300;2022-12-20T06:09:28;5.20;99.90
28244;DHT22;15510;52.512;13.300;2022-12-20T06:12:03;5.30;99.90
28244;DHT22;15510;52.512;13.300;2022-12-20T06:14:32;5.30;99.90
28244;DHT22;15510;52.512;13.300;2022-12-20T06:16:57;5.30;99.90
28244;DHT22;15510;52.512;13.300;2022-12-20T06:19:23;5.40;99.90
28244;DHT22;15510;52.512;13.300;2022-12-20T06:21:52;5.40;99.90
28244;DHT22;15510;52.512;13.300;2022-12-20T06:24:24;5.40;99.90
28244;DHT22;15510;52.512;13.300;2022-12-20T06:26:52;5.40;99.90
28244;DHT22;15510;52.512;13.300;2022-12-20T06:29:18;5.40;99.90
28244;DHT22;15510;52.512;13.300;2022-12-20T06:31:52;5.40;99.90
28244;DHT22;15510;52.512;13.300;2022-12-20T06:34:18;5.40;99.90
28244;DHT22;15510;52.512;13.300;2022-12-20T06:36:45;5.30;99.90
28244;DHT22;15510;52.512;13.300;2022-12-20T06:39:16;5.30;99.90
28244;DHT22;15510;52.512;13.300;2022-12-20T06:41:51;5.30;99.90
28244;DHT22;15510;52.512;13.300;2022-12-20T06:44:16;5.30;99.90
28244;DHT22;15510;52.512;13.300;2022-12-20T06:46:42;5.20;99.90
28244;DHT22;15510;52.512;13.300;2022-12-20T06:49:09;5.20;99.90
28244;DHT22;15510;52.512;13.300;2022-12-20T06:51:35;5.30;99.90
28244;DHT22;15510;52.512;13.300;2022-12-20T06:54:01;5.30;99.90
28244;DHT22;15510;52.512;13.300;2022-12-20T06:56:29;5.30;99.90
28244;DHT22;15510;52.512;13.300;2022-12-20T06:58:55;5.20;99.90
28244;DHT22;15510;52.512;13.300;2022-12-20T07:01:22;5.20;99.90
28244;DHT22;15510;52.512;13.300;2022-12-20T07:03:47;5.30;99.90
28244;DHT22;15510;52.512;13.300;2022-12-20T07:06:13;5.30;99.90
28244;DHT22;15510;52.512;13.300;2022-12-20T07:08:39;5.20;99.90
28244;DHT22;15510;52.512;13.300;2022-12-20T07:11:06;5.30;99.90
28244;DHT22;15510;52.512;13.300;2022-12-20T07:13:32;5.30;99.90
28244;DHT22;15510;52.512;13.300;2022-12-20T07:15:59;5.30;99.90
28244;DHT22;15510;52.512;13.300;2022-12-20T07:18:24;5.30;99.90
28244;DHT22;15510;52.512;13.300;2022-12-20T07:20:50;5.40;99.90
28244;DHT22;15510;52.512;13.300;2022-12-20T07:23:16;5.40;99.90
28244;DHT22;15510;52.512;13.300;2022-12-20T07:25:43;5.50;99.90
28244;DHT22;15510;52.512;13.300;2022-12-20T07:28:16;5.50;99.90
28244;DHT22;15510;52.512;13.300;2022-12-20T07:30:42;5.50;99.90
28244;DHT22;15510;52.512;13.300;2022-12-20T07:33:08;5.50;99.90
28244;DHT22;15510;52.512;13.300;2022-12-20T07:35:33;5.60;99.90
28244;DHT22;15510;52.512;13.300;2022-12-20T07:37:59;5.60;99.90
28244;DHT22;15510;52.512;13.300;2022-12-20T07:40:25;5.60;99.90
28244;DHT22;15510;52.512;13.300;2022-12-20T07:42:50;5.60;99.90
28244;DHT22;15510;52.512;13.300;2022-12-20T07:45:17;5.60;99.90
28244;DHT22;15510;52.512;13.300;2022-12-20T07:47:43;5.60;99.90
28244;DHT22;15510;52.512;13.300;2022-12-20T07:50:08;5.70;99.90
28244;DHT22;15510;52.512;13.300;2022-12-20T07:52:35;5.60;99.90
28244;DHT22;15510;52.512;13.300;2022-12-20T07:55:03;5.70;99.90
28244;DHT22;15510;52.512;13.300;2022-12-20T07:57:34;5.70;99.90
28244;DHT22;15510;52.512;13.300;2022-12-20T08:00:03;5.60;99.90
28244;DHT22;15510;52.512;13.300;2022-12-20T08:02:48;5.60;99.90
28244;DHT22;15510;52.512;13.300;2022-12-20T08:05:14;5.60;99.90
28244;DHT22;15510;52.512;13.300;2022-12-20T08:07:42;5.60;99.90
28244;DHT22;15510;52.512;13.300;2022-12-20T08:10:10;5.60;99.90
28244;DHT22;15510;52.512;13.300;2022-12-20T08:12:37;5.60;99.90
28244;DHT22;15510;52.512;13.300;2022-12-20T08:15:05;5.70;99.90
28244;DHT22;15510;52.512;13.300;2022-12-20T08:17:30;5.70;99.90
28244;DHT22;15510;52.512;13.300;2022-12-20T08:19:56;5.70;99.90
28244;DHT22;15510;52.512;13.300;2022-12-20T08:22:22;5.80;99.90
28244;DHT22;15510;52.512;13.300;2022-12-20T08:24:48;5.80;99.90
28244;DHT22;15510;52.512;13.300;2022-12-20T08:27:13;5.80;99.90
28244;DHT22;15510;52.512;13.300;2022-12-20T08:29:40;5.80;99.90
28244;DHT22;15510;52.512;13.300;2022-12-20T08:32:05;5.80;99.90
28244;DHT22;15510;52.512;13.300;2022-12-20T08:34:31;5.80;99.90
28244;DHT22;15510;52.512;13.300;2022-12-20T08:36:57;5.80;99.90
28244;DHT22;15510;52.512;13.300;2022-12-20T08:39:22;5.80;99.90
28244;DHT22;15510;52.512;13.300;2022-12-20T08:41:48;5.80;99.90
28244;DHT22;15510;52.512;13.300;2022-12-20T08:44:14;5.80;99.90
28244;DHT22;15510;52.512;13.300;2022-12-20T08:46:39;5.80;99.90
28244;DHT22;15510;52.512;13.300;2022-12-20T08:49:05;5.90;99.90
28244;DHT22;15510;52.512;13.300;2022-12-20T08:51:31;5.90;99.90
28244;DHT22;15510;52.512;13.300;2022-12-20T08:53:57;5.90;99.90
28244;DHT22;15510;52.512;13.300;2022-12-20T08:56:23;6.00;99.90
28244;DHT22;15510;52.512;13.300;2022-12-20T08:58:48;6.00;99.90
28244;DHT22;15510;52.512;13.300;2022-12-20T09:01:16;6.00;99.90
28244;DHT22;15510;52.512;13.300;2022-12-20T09:03:43;6.10;99.90
28244;DHT22;15510;52.512;13.300;2022-12-20T09:06:11;6.10;99.90
28244;DHT22;15510;52.512;13.300;2022-12-20T09:08:38;6.10;99.90
28244;DHT22;15510;52.512;13.300;2022-12-20T09:11:10;6.10;99.90
28244;DHT22;15510;52.512;13.300;2022-12-20T09:13:43;6.20;99.90
28244;DHT22;15510;52.512;13.300;2022-12-20T09:16:10;6.20;99.90
28244;DHT22;15510;52.512;13.300;2022-12-20T09:18:36;6.20;99.90
28244;DHT22;15510;52.512;13.300;2022-12-20T09:21:04;6.30;99.90
28244;DHT22;15510;52.512;13.300;2022-12-20T09:23:31;6.30;99.90
28244;DHT22;15510;52.512;13.300;2022-12-20T09:26:09;6.30;99.90
28244;DHT22;15510;52.512;13.300;2022-12-20T09:28:35;6.40;99.90
28244;DHT22;15510;52.512;13.300;2022-12-20T09:31:04;6.50;99.90
28244;DHT22;15510;52.512;13.300;2022-12-20T09:33:31;6.60;99.90
28244;DHT22;15510;52.512;13.300;2022-12-20T09:35:58;6.70;99.90
28244;DHT22;15510;52.512;13.300;2022-12-20T09:38:25;6.80;99.90
28244;DHT22;15510;52.512;13.300;2022-12-20T09:40:54;6.90;99.90
28244;DHT22;15510;52.512;13.300;2022-12-20T09:43:21;7.00;99.90
28244;DHT22;15510;52.512;13.300;2022-12-20T09:45:53;7.10;99.90
28244;DHT22;15510;52.512;13.300;2022-12-20T09:48:28;7.20;99.90
28244;DHT22;15510;52.512;13.300;2022-12-20T09:54:14;7.30;99.90
28244;DHT22;15510;52.512;13.300;2022-12-20T09:56:57;7.30;99.90
28244;DHT22;15510;52.512;13.300;2022-12-20T09:59:24;7.30;99.90
28244;DHT22;15510;52.512;13.300;2022-12-20T10:01:50;7.40;99.90
28244;DHT22;15510;52.512;13.300;2022-12-20T10:10:24;7.40;99.90
28244;DHT22;15510;52.512;13.300;2022-12-20T10:15:55;7.40;99.90
28244;DHT22;15510;52.512;13.300;2022-12-20T10:24:01;7.60;99.90
28244;DHT22;15510;52.512;13.300;2022-12-20T10:26:28;7.60;99.90
28244;DHT22;15510;52.512;13.300;2022-12-20T10:28:54;7.60;99.90
28244;DHT22;15510;52.512;13.300;2022-12-20T10:31:20;7.60;99.90
28244;DHT22;15510;52.512;13.300;2022-12-20T10:33:46;7.60;99.90
28244;DHT22;15510;52.512;13.300;2022-12-20T10:36:24;7.70;99.90
28244;DHT22;15510;52.512;13.300;2022-12-20T10:39:02;7.60;99.90
28244;DHT22;15510;52.512;13.300;2022-12-20T10:41:48;7.70;99.90
28244;DHT22;15510;52.512;13.300;2022-12-20T10:44:27;7.70;99.90
28244;DHT22;15510;52.512;13.300;2022-12-20T10:46:56;7.80;99.90
28244;DHT22;15510;52.512;13.300;2022-12-20T10:51:52;8.10;99.90
28244;DHT22;15510;52.512;13.300;2022-12-20T10:56:57;8.30;99.90
28244;DHT22;15510;52.512;13.300;2022-12-20T10:59:28;8.40;99.90
28244;DHT22;15510;52.512;13.300;2022-12-20T11:01:54;8.50;99.90
28244;DHT22;15510;52.512;13.300;2022-12-20T11:04:25;8.60;99.90
28244;DHT22;15510;52.512;13.300;2022-12-20T11:06:51;8.70;99.90
28244;DHT22;15510;52.512;13.300;2022-12-20T11:09:27;8.60;99.90
28244;DHT22;15510;52.512;13.300;2022-12-20T11:12:06;8.60;99.90
28244;DHT22;15510;52.512;13.300;2022-12-20T11:14:34;8.50;99.90
28244;DHT22;15510;52.512;13.300;2022-12-20T11:27:47;8.50;99.90
28244;DHT22;15510;52.512;13.300;2022-12-20T11:38:21;8.60;99.90
28244;DHT22;15510;52.512;13.300;2022-12-20T11:41:16;8.60;99.90
28244;DHT22;15510;52.512;13.300;2022-12-20T11:47:07;8.70;99.90
28244;DHT22;15510;52.512;13.300;2022-12-20T11:52:58;8.80;99.90
28244;DHT22;15510;52.512;13.300;2022-12-20T11:55:14;8.80;99.90
28244;DHT22;15510;52.512;13.300;2022-12-20T11:57:46;8.80;99.90
28244;DHT22;15510;52.512;13.300;2022-12-20T12:00:14;8.70;99.90
28244;DHT22;15510;52.512;13.300;2022-12-20T12:02:52;8.80;99.90
28244;DHT22;15510;52.512;13.300;2022-12-20T12:05:32;8.80;99.90
28244;DHT22;15510;52.512;13.300;2022-12-20T12:08:04;8.90;99.90
28244;DHT22;15510;52.512;13.300;2022-12-20T12:10:36;8.90;99.90
28244;DHT22;15510;52.512;13.300;2022-12-20T12:13:12;9.00;99.90
28244;DHT22;15510;52.512;13.300;2022-12-20T12:15:56;9.10;99.90
28244;DHT22;15510;52.512;13.300;2022-12-20T12:18:27;9.10;99.90
28244;DHT22;15510;52.512;13.300;2022-12-20T12:21:14;9.20;99.90
28244;DHT22;15510;52.512;13.300;2022-12-20T12:26:28;9.30;99.90
28244;DHT22;15510;52.512;13.300;2022-12-20T12:28:58;9.30;99.90
28244;DHT22;15510;52.512;13.300;2022-12-20T12:31:55;9.30;99.90
28244;DHT22;15510;52.512;13.300;2022-12-20T12:45:33;9.10;99.90
28244;DHT22;15510;52.512;13.300;2022-12-20T12:48:25;9.00;99.90
28244;DHT22;15510;52.512;13.300;2022-12-20T12:50:57;9.10;99.90
28244;DHT22;15510;52.512;13.300;2022-12-20T12:53:42;9.00;99.90
28244;DHT22;15510;52.512;13.300;2022-12-20T12:59:21;9.00;99.90
28244;DHT22;15510;52.512;13.300;2022-12-20T13:17:52;8.90;99.90
28244;DHT22;15510;52.512;13.300;2022-12-20T13:20:22;8.90;99.90
28244;DHT22;15510;52.512;13.300;2022-12-20T13:25:34;8.80;99.90
28244;DHT22;15510;52.512;13.300;2022-12-20T13:33:49;8.60;99.90
28244;DHT22;15510;52.512;13.300;2022-12-20T13:41:30;8.60;99.90
28244;DHT22;15510;52.512;13.300;2022-12-20T13:44:00;8.60;99.90
28244;DHT22;15510;52.512;13.300;2022-12-20T13:49:42;8.50;99.90
28244;DHT22;15510;52.512;13.300;2022-12-20T13:54:43;8.40;99.90
28244;DHT22;15510;52.512;13.300;2022-12-20T13:57:15;8.40;99.90
28244;DHT22;15510;52.512;13.300;2022-12-20T13:59:45;8.30;99.90
28244;DHT22;15510;52.512;13.300;2022-12-20T14:02:19;8.30;99.90
28244;DHT22;15510;52.512;13.300;2022-12-20T14:04:52;8.20;99.90
28244;DHT22;15510;52.512;13.300;2022-12-20T14:07:20;8.20;99.90
28244;DHT22;15510;52.512;13.300;2022-12-20T14:09:48;8.20;99.90
28244;DHT22;15510;52.512;13.300;2022-12-20T14:12:19;8.20;99.90
28244;DHT22;15510;52.512;13.300;2022-12-20T14:14:47;8.20;99.90
28244;DHT22;15510;52.512;13.300;2022-12-20T14:17:21;8.20;99.90
28244;DHT22;15510;52.512;13.300;2022-12-20T14:20:00;8.10;99.90
28244;DHT22;15510;52.512;13.300;2022-12-20T14:22:26;8.10;99.90
28244;DHT22;15510;52.512;13.300;2022-12-20T14:24:52;8.10;99.90
28244;DHT22;15510;52.512;13.300;2022-12-20T14:27:18;8.10;99.90
28244;DHT22;15510;52.512;13.300;2022-12-20T14:29:44;8.10;99.90
28244;DHT22;15510;52.512;13.300;2022-12-20T14:32:20;8.10;99.90
28244;DHT22;15510;52.512;13.300;2022-12-20T14:34:47;8.10;99.90
28244;DHT22;15510;52.512;13.300;2022-12-20T14:37:26;8.10;99.90
28244;DHT22;15510;52.512;13.300;2022-12-20T14:39:56;8.10;99.90
28244;DHT22;15510;52.512;13.300;2022-12-20T14:42:27;8.10;99.90
28244;DHT22;15510;52.512;13.300;2022-12-20T14:45:21;8.10;99.90
28244;DHT22;15510;52.512;13.300;2022-12-20T14:50:36;8.00;99.90
28244;DHT22;15510;52.512;13.300;2022-12-20T14:53:03;8.00;99.90
28244;DHT22;15510;52.512;13.300;2022-12-20T14:55:35;8.00;99.90
28244;DHT22;15510;52.512;13.300;2022-12-20T14:58:05;7.90;99.90
28244;DHT22;15510;52.512;13.300;2022-12-20T15:01:02;7.90;99.90
28244;DHT22;15510;52.512;13.300;2022-12-20T15:03:28;7.90;99.90
28244;DHT22;15510;52.512;13.300;2022-12-20T15:05:58;7.90;99.90
28244;DHT22;15510;52.512;13.300;2022-12-20T15:08:29;7.90;99.90
28244;DHT22;15510;52.512;13.300;2022-12-20T15:16:14;7.80;99.90
28244;DHT22;15510;52.512;13.300;2022-12-20T15:18:39;7.80;99.90
28244;DHT22;15510;52.512;13.300;2022-12-20T15:21:14;7.80;99.90
28244;DHT22;15510;52.512;13.300;2022-12-20T15:23:46;7.80;99.90
28244;DHT22;15510;52.512;13.300;2022-12-20T15:26:18;7.70;99.90
28244;DHT22;15510;52.512;13.300;2022-12-20T15:28:44;7.80;99.90
28244;DHT22;15510;52.512;13.300;2022-12-20T15:31:11;7.70;99.90
28244;DHT22;15510;52.512;13.300;2022-12-20T15:33:40;7.80;99.90
28244;DHT22;15510;52.512;13.300;2022-12-20T15:36:11;7.70;99.90
28244;DHT22;15510;52.512;13.300;2022-12-20T15:38:37;7.70;99.90
28244;DHT22;15510;52.512;13.300;2022-12-20T15:41:05;7.60;99.90
28244;DHT22;15510;52.512;13.300;2022-12-20T15:43:36;7.60;99.90
28244;DHT22;15510;52.512;13.300;2022-12-20T15:46:03;7.60;99.90
28244;DHT22;15510;52.512;13.300;2022-12-20T15:48:29;7.60;99.90
28244;DHT22;15510;52.512;13.300;2022-12-20T15:50:56;7.60;99.90
28244;DHT22;15510;52.512;13.300;2022-12-20T15:53:30;7.60;99.90
28244;DHT22;15510;52.512;13.300;2022-12-20T15:55:57;7.50;99.90
28244;DHT22;15510;52.512;13.300;2022-12-20T15:58:24;7.50;99.90
28244;DHT22;15510;52.512;13.300;2022-12-20T16:00:52;7.50;99.90
28244;DHT22;15510;52.512;13.300;2022-12-20T16:03:21;7.50;99.90
28244;DHT22;15510;52.512;13.300;2022-12-20T16:05:48;7.50;99.90
28244;DHT22;15510;52.512;13.300;2022-12-20T16:08:18;7.50;99.90
28244;DHT22;15510;52.512;13.300;2022-12-20T16:10:45;7.50;99.90
28244;DHT22;15510;52.512;13.300;2022-12-20T16:13:21;7.40;99.90
28244;DHT22;15510;52.512;13.300;2022-12-20T16:15:48;7.40;99.90
28244;DHT22;15510;52.512;13.300;2022-12-20T16:18:14;7.40;99.90
28244;DHT22;15510;52.512;13.300;2022-12-20T16:20:40;7.40;99.90
28244;DHT22;15510;52.512;13.300;2022-12-20T16:23:17;7.40;99.90
28244;DHT22;15510;52.512;13.300;2022-12-20T16:25:43;7.40;99.90
28244;DHT22;15510;52.512;13.300;2022-12-20T16:28:09;7.40;99.90
28244;DHT22;15510;52.512;13.300;2022-12-20T16:30:35;7.40;99.90
28244;DHT22;15510;52.512;13.300;2022-12-20T16:33:01;7.30;99.90
28244;DHT22;15510;52.512;13.300;2022-12-20T16:35:34;7.30;99.90
28244;DHT22;15510;52.512;13.300;2022-12-20T16:38:02;7.30;99.90
28244;DHT22;15510;52.512;13.300;2022-12-20T16:40:30;7.30;99.90
28244;DHT22;15510;52.512;13.300;2022-12-20T16:42:57;7.30;99.90
28244;DHT22;15510;52.512;13.300;2022-12-20T16:45:30;7.20;99.90
28244;DHT22;15510;52.512;13.300;2022-12-20T16:47:56;7.20;99.90
28244;DHT22;15510;52.512;13.300;2022-12-20T16:50:25;7.10;99.90
28244;DHT22;15510;52.512;13.300;2022-12-20T16:52:51;7.10;99.90
28244;DHT22;15510;52.512;13.300;2022-12-20T16:55:25;7.20;99.90
28244;DHT22;15510;52.512;13.300;2022-12-20T16:57:52;7.20;99.90
28244;DHT22;15510;52.512;13.300;2022-12-20T17:00:21;7.10;99.90
28244;DHT22;15510;52.512;13.300;2022-12-20T17:02:47;7.10;99.90
28244;DHT22;15510;52.512;13.300;2022-12-20T17:05:31;7.10;99.90
28244;DHT22;15510;52.512;13.300;2022-12-20T17:07:57;7.10;99.90
28244;DHT22;15510;52.512;13.300;2022-12-20T17:10:24;7.10;99.90
28244;DHT22;15510;52.512;13.300;2022-12-20T17:12:50;7.10;99.90
28244;DHT22;15510;52.512;13.300;2022-12-20T17:15:26;7.10;99.90
28244;DHT22;15510;52.512;13.300;2022-12-20T17:17:53;7.10;99.90
28244;DHT22;15510;52.512;13.300;2022-12-20T17:20:19;7.10;99.90
28244;DHT22;15510;52.512;13.300;2022-12-20T17:22:51;7.10;99.90
28244;DHT22;15510;52.512;13.300;2022-12-20T17:25:27;7.10;99.90
28244;DHT22;15510;52.512;13.300;2022-12-20T17:27:53;7.10;99.90
28244;DHT22;15510;52.512;13.300;2022-12-20T17:30:21;7.10;99.90
28244;DHT22;15510;52.512;13.300;2022-12-20T17:32:47;7.10;99.90
28244;DHT22;15510;52.512;13.300;2022-12-20T17:35:26;7.20;99.90
28244;DHT22;15510;52.512;13.300;2022-12-20T17:37:52;7.20;99.90
28244;DHT22;15510;52.512;13.300;2022-12-20T17:40:21;7.10;99.90
28244;DHT22;15510;52.512;13.300;2022-12-20T17:42:47;7.10;99.90
28244;DHT22;15510;52.512;13.300;2022-12-20T17:45:28;7.20;99.90
28244;DHT22;15510;52.512;13.300;2022-12-20T17:47:55;7.20;99.90
28244;DHT22;15510;52.512;13.300;2022-12-20T17:50:21;7.10;99.90
28244;DHT22;15510;52.512;13.300;2022-12-20T17:52:49;7.10;99.90